createdAt,value
2018-02-16T00:01:02.201Z,3.20
2018-02-16T00:03:29.166Z,3.20
2018-02-16T00:05:56.138Z,3.20
2018-02-16T00:08:23.086Z,3.10
2018-02-16T00:10:50.782Z,3.20
2018-02-16T00:13:18.510Z,3.10
2018-02-16T00:15:45.458Z,3.10
2018-02-16T00:18:12.402Z,3.10
2018-02-16T00:20:39.345Z,3.10
2018-02-16T00:23:06.290Z,3.10
2018-02-16T00:25:33.236Z,3.10
2018-02-16T00:28:00.182Z,3.10
2018-02-16T00:30:27.113Z,3.00
2018-02-16T00:32:54.075Z,3.00
2018-02-16T00:35:21.002Z,2.90
2018-02-16T00:37:47.934Z,3.00
2018-02-16T00:40:14.907Z,3.00
2018-02-16T00:42:41.835Z,3.00
2018-02-16T00:45:08.801Z,3.00
2018-02-16T00:47:35.746Z,3.00
2018-02-16T00:50:02.706Z,3.00
2018-02-16T00:52:29.662Z,3.00
2018-02-16T00:54:57.402Z,3.00
2018-02-16T00:57:24.342Z,3.00
2018-02-16T00:59:51.413Z,2.90
2018-02-16T01:02:19.159Z,3.00
2018-02-16T01:04:46.219Z,3.00
2018-02-16T01:07:13.155Z,3.00
2018-02-16T01:09:40.118Z,2.90
2018-02-16T01:12:07.817Z,2.90
2018-02-16T01:14:34.801Z,2.90
2018-02-16T01:17:01.767Z,2.80
2018-02-16T01:19:29.515Z,2.80
2018-02-16T01:21:56.467Z,2.80
2018-02-16T01:24:23.422Z,2.80
2018-02-16T01:26:50.347Z,2.80
2018-02-16T01:29:18.060Z,2.70
2018-02-16T01:31:44.982Z,2.70
2018-02-16T01:34:12.718Z,2.70
2018-02-16T01:36:39.661Z,2.70
2018-02-16T01:39:06.598Z,2.70
2018-02-16T01:41:33.559Z,2.70
2018-02-16T01:44:00.502Z,2.70
2018-02-16T01:46:27.446Z,2.70
2018-02-16T01:48:54.398Z,2.70
2018-02-16T01:51:21.346Z,2.70
2018-02-16T01:53:48.330Z,2.70
2018-02-16T01:56:15.359Z,2.70
2018-02-16T01:58:43.042Z,2.70
2018-02-16T02:01:10.038Z,2.60
2018-02-16T02:03:37.086Z,2.70
2018-02-16T02:06:04.126Z,2.70
2018-02-16T02:08:31.101Z,2.70
2018-02-16T02:10:58.118Z,2.70
2018-02-16T02:13:25.042Z,2.60
2018-02-16T02:15:52.014Z,2.60
2018-02-16T02:18:18.953Z,2.60
2018-02-16T02:20:45.940Z,2.60
2018-02-16T02:23:13.633Z,2.70
2018-02-16T02:25:40.582Z,2.60
2018-02-16T02:28:07.502Z,2.60
2018-02-16T02:30:34.513Z,2.70
2018-02-16T02:33:01.438Z,2.60
2018-02-16T02:35:28.511Z,2.60
2018-02-16T02:37:55.438Z,2.50
2018-02-16T02:40:22.398Z,2.60
2018-02-16T02:42:49.368Z,2.60
2018-02-16T02:45:17.062Z,2.50
2018-02-16T02:47:44.053Z,2.50
2018-02-16T02:50:10.990Z,2.50
2018-02-16T02:52:37.935Z,2.50
2018-02-16T02:55:04.883Z,2.50
2018-02-16T02:57:31.995Z,2.50
2018-02-16T02:59:58.913Z,2.40
2018-02-16T03:02:25.959Z,2.40
2018-02-16T03:04:53.658Z,2.30
2018-02-16T03:07:20.739Z,2.30
2018-02-16T03:09:47.658Z,2.30
2018-02-16T03:12:14.606Z,2.20
2018-02-16T03:14:41.542Z,2.20
2018-02-16T03:17:08.517Z,2.20
2018-02-16T03:19:35.446Z,2.10
2018-02-16T03:22:02.387Z,2.20
2018-02-16T03:24:29.354Z,2.10
2018-02-16T03:26:56.394Z,2.10
2018-02-16T03:29:23.327Z,2.10
2018-02-16T03:31:50.290Z,2.10
2018-02-16T03:34:17.214Z,2.00
2018-02-16T03:36:44.293Z,2.00
2018-02-16T03:39:11.201Z,2.00
2018-02-16T03:41:38.175Z,2.00
2018-02-16T03:44:05.106Z,2.00
2018-02-16T03:46:32.164Z,2.00
2018-02-16T03:48:59.101Z,2.10
2018-02-16T03:51:26.078Z,2.10
2018-02-16T03:53:53.834Z,2.00
2018-02-16T03:56:20.762Z,2.00
2018-02-16T03:58:47.862Z,2.00
2018-02-16T04:01:14.782Z,2.00
2018-02-16T04:03:42.557Z,1.90
2018-02-16T04:06:10.278Z,1.90
2018-02-16T04:08:37.242Z,1.90
2018-02-16T04:11:04.186Z,1.90
2018-02-16T04:13:31.223Z,1.90
2018-02-16T04:15:58.146Z,1.90
2018-02-16T04:18:25.110Z,1.90
2018-02-16T04:20:52.058Z,1.80
2018-02-16T04:23:18.994Z,1.80
2018-02-16T04:25:45.922Z,1.80
2018-02-16T04:28:12.894Z,1.80
2018-02-16T04:30:39.839Z,1.80
2018-02-16T04:33:06.786Z,1.70
2018-02-16T04:35:33.726Z,1.80
2018-02-16T04:38:00.675Z,1.70
2018-02-16T04:40:27.638Z,1.70
2018-02-16T04:42:54.666Z,1.80
2018-02-16T04:45:21.593Z,1.70
2018-02-16T04:47:48.522Z,1.70
2018-02-16T04:50:15.462Z,1.70
2018-02-16T04:52:42.390Z,1.70
2018-02-16T04:55:09.326Z,1.70
2018-02-16T04:57:37.054Z,1.70
2018-02-16T05:00:04.005Z,1.60
2018-02-16T05:02:31.240Z,1.70
2018-02-16T05:04:58.995Z,1.70
2018-02-16T05:07:25.921Z,1.70
2018-02-16T05:09:52.901Z,1.60
2018-02-16T05:12:19.865Z,1.60
2018-02-16T05:14:46.789Z,1.60
2018-02-16T05:17:13.741Z,1.60
2018-02-16T05:19:40.670Z,1.60
2018-02-16T05:22:07.598Z,1.60
2018-02-16T05:24:34.573Z,1.50
2018-02-16T05:27:01.524Z,1.50
2018-02-16T05:29:28.461Z,1.50
2018-02-16T05:31:55.434Z,1.60
2018-02-16T05:34:23.146Z,1.50
2018-02-16T05:36:50.066Z,1.50
2018-02-16T05:39:17.065Z,1.50
2018-02-16T05:41:43.997Z,1.60
2018-02-16T05:44:10.959Z,1.60
2018-02-16T05:46:37.906Z,1.60
2018-02-16T05:49:04.851Z,1.50
2018-02-16T05:51:31.881Z,1.50
2018-02-16T05:53:58.838Z,1.60
2018-02-16T05:56:25.877Z,1.60
2018-02-16T05:58:52.807Z,1.50
2018-02-16T06:01:19.782Z,1.50
2018-02-16T06:03:46.726Z,1.50
2018-02-16T06:06:13.719Z,1.50
2018-02-16T06:08:40.642Z,1.50
2018-02-16T06:11:08.723Z,1.50
2018-02-16T06:13:36.418Z,1.50
2018-02-16T06:16:03.382Z,1.50
2018-02-16T06:18:30.352Z,1.50
2018-02-16T06:20:57.442Z,1.50
2018-02-16T06:23:24.415Z,1.50
2018-02-16T06:25:52.760Z,1.50
2018-02-16T06:28:21.486Z,1.50
2018-02-16T06:30:48.451Z,1.40
2018-02-16T06:33:15.455Z,1.50
2018-02-16T06:35:42.399Z,1.50
2018-02-16T06:38:09.359Z,1.50
2018-02-16T06:40:36.306Z,1.50
2018-02-16T06:43:03.274Z,1.40
2018-02-16T06:45:30.333Z,1.50
2018-02-16T06:47:57.263Z,1.50
2018-02-16T06:50:24.214Z,1.50
2018-02-16T06:52:51.159Z,1.60
2018-02-16T06:55:18.094Z,1.50
2018-02-16T06:57:45.039Z,1.50
2018-02-16T07:00:11.966Z,1.50
2018-02-16T07:02:38.905Z,1.60
2018-02-16T07:05:05.826Z,1.50
2018-02-16T07:07:32.764Z,1.60
2018-02-16T07:10:00.458Z,1.60
2018-02-16T07:12:27.435Z,1.50
2018-02-16T07:14:55.163Z,1.60
2018-02-16T07:17:22.109Z,1.50
2018-02-16T07:19:49.060Z,1.60
2018-02-16T07:22:15.998Z,1.60
2018-02-16T07:24:42.950Z,1.60
2018-02-16T07:27:09.885Z,1.60
2018-02-16T07:29:36.810Z,1.70
2018-02-16T07:32:04.518Z,1.70
2018-02-16T07:34:31.448Z,1.70
2018-02-16T07:36:58.388Z,1.70
2018-02-16T07:39:25.314Z,1.70
2018-02-16T07:41:52.258Z,1.70
2018-02-16T07:44:19.178Z,1.70
2018-02-16T07:46:46.110Z,1.70
2018-02-16T07:49:13.038Z,1.70
2018-02-16T07:51:39.972Z,1.70
2018-02-16T07:54:06.914Z,1.80
2018-02-16T07:56:33.866Z,1.80
2018-02-16T07:59:00.803Z,1.90
2018-02-16T08:01:27.730Z,1.90
2018-02-16T08:03:54.674Z,2.00
2018-02-16T08:06:21.593Z,2.00
2018-02-16T08:08:49.302Z,2.00
2018-02-16T08:11:16.253Z,2.00
2018-02-16T08:13:43.182Z,2.00
2018-02-16T08:16:10.154Z,2.00
2018-02-16T08:18:37.103Z,2.00
2018-02-16T08:21:04.030Z,2.10
2018-02-16T08:23:30.971Z,2.10
2018-02-16T08:25:57.909Z,2.10
2018-02-16T08:28:24.854Z,2.20
2018-02-16T08:30:51.809Z,2.30
2018-02-16T08:33:18.731Z,2.30
2018-02-16T08:35:45.653Z,2.30
2018-02-16T08:38:13.358Z,2.50
2018-02-16T08:40:40.291Z,2.50
2018-02-16T08:43:07.259Z,2.50
2018-02-16T08:45:34.173Z,2.50
2018-02-16T08:48:01.121Z,2.60
2018-02-16T08:50:28.037Z,2.60
2018-02-16T08:52:55.752Z,2.70
2018-02-16T08:55:22.690Z,2.70
2018-02-16T08:57:49.626Z,2.80
2018-02-16T09:00:16.615Z,2.90
2018-02-16T09:02:43.553Z,2.90
2018-02-16T09:05:10.494Z,2.90
2018-02-16T09:07:37.414Z,3.00
2018-02-16T09:10:04.359Z,3.00
2018-02-16T09:12:31.286Z,3.10
2018-02-16T09:14:58.244Z,3.10
2018-02-16T09:17:25.165Z,3.20
2018-02-16T09:19:52.907Z,3.30
2018-02-16T09:22:19.826Z,3.30
2018-02-16T09:24:46.770Z,3.30
2018-02-16T09:27:13.695Z,3.40
2018-02-16T09:29:40.952Z,3.50
2018-02-16T09:32:07.895Z,3.60
2018-02-16T09:34:34.846Z,3.70
2018-02-16T09:37:01.774Z,3.80
2018-02-16T09:39:31.774Z,3.90
2018-02-16T09:41:58.694Z,3.90
2018-02-16T09:44:25.642Z,4.00
2018-02-16T09:46:52.565Z,4.10
2018-02-16T09:49:21.538Z,4.10
2018-02-16T09:51:48.458Z,4.20
2018-02-16T09:54:15.384Z,4.20
2018-02-16T09:56:43.090Z,4.40
2018-02-16T09:59:10.014Z,4.40
2018-02-16T10:01:37.010Z,4.50
2018-02-16T10:04:04.015Z,4.60
2018-02-16T10:06:31.023Z,4.60
2018-02-16T10:08:58.731Z,4.60
2018-02-16T10:11:25.806Z,4.60
2018-02-16T10:13:52.738Z,4.60
2018-02-16T10:16:19.678Z,4.60
2018-02-16T10:18:46.631Z,4.60
2018-02-16T10:21:13.574Z,4.70
2018-02-16T10:23:40.502Z,4.80
2018-02-16T10:26:07.444Z,4.80
2018-02-16T10:28:34.366Z,4.90
2018-02-16T10:31:01.309Z,4.90
2018-02-16T10:33:29.011Z,5.00
2018-02-16T10:35:55.946Z,5.00
2018-02-16T10:38:22.866Z,5.00
2018-02-16T10:40:49.810Z,5.10
2018-02-16T10:43:17.475Z,5.20
2018-02-16T10:45:45.165Z,5.20
2018-02-16T10:48:12.099Z,5.20
2018-02-16T10:50:39.057Z,5.30
2018-02-16T10:53:05.983Z,5.30
2018-02-16T10:55:32.900Z,5.30
2018-02-16T10:58:00.576Z,5.40
2018-02-16T11:00:34.120Z,5.40
2018-02-16T11:03:06.695Z,5.50
2018-02-16T11:05:39.255Z,5.50
2018-02-16T11:08:11.955Z,5.60
2018-02-16T11:10:38.870Z,5.80
2018-02-16T11:13:05.798Z,5.90
2018-02-16T11:15:33.466Z,5.90
2018-02-16T11:18:00.392Z,5.80
2018-02-16T11:20:27.307Z,5.90
2018-02-16T11:22:54.246Z,5.90
2018-02-16T11:25:21.262Z,5.90
2018-02-16T11:27:48.205Z,5.80
2018-02-16T11:30:15.129Z,5.80
2018-02-16T11:32:42.830Z,5.90
2018-02-16T11:35:09.766Z,5.80
2018-02-16T11:37:36.710Z,5.90
2018-02-16T11:40:03.635Z,6.00
2018-02-16T11:42:30.605Z,6.10
2018-02-16T11:44:57.521Z,6.10
2018-02-16T11:47:25.217Z,6.20
2018-02-16T11:49:52.137Z,6.20
2018-02-16T11:52:19.070Z,6.30
2018-02-16T11:54:46.770Z,6.40
2018-02-16T11:57:13.742Z,6.40
2018-02-16T11:59:40.754Z,6.40
2018-02-16T12:02:08.006Z,6.40
2018-02-16T12:04:34.938Z,6.40
2018-02-16T12:07:01.910Z,6.50
2018-02-16T12:09:28.833Z,6.60
2018-02-16T12:11:55.900Z,6.50
2018-02-16T12:14:22.826Z,6.50
2018-02-16T12:16:49.742Z,6.60
2018-02-16T12:19:17.446Z,6.50
2018-02-16T12:21:44.409Z,6.50
2018-02-16T12:24:11.350Z,6.40
2018-02-16T12:26:38.274Z,6.40
2018-02-16T12:29:05.214Z,6.40
2018-02-16T12:31:32.146Z,6.50
2018-02-16T12:33:59.854Z,6.70
2018-02-16T12:36:26.799Z,6.60
2018-02-16T12:38:53.746Z,6.50
2018-02-16T12:41:20.674Z,6.60
2018-02-16T12:43:47.613Z,6.60
2018-02-16T12:46:14.579Z,6.50
2018-02-16T12:48:41.511Z,6.50
2018-02-16T12:51:08.430Z,6.40
2018-02-16T12:53:35.370Z,6.40
2018-02-16T12:56:03.054Z,6.40
2018-02-16T12:58:29.998Z,6.40
2018-02-16T13:00:56.923Z,6.50
2018-02-16T13:03:24.630Z,6.40
2018-02-16T13:05:51.587Z,6.40
2018-02-16T13:08:18.519Z,6.40
2018-02-16T13:10:45.450Z,6.40
2018-02-16T13:13:12.378Z,6.50
2018-02-16T13:15:39.318Z,6.50
2018-02-16T13:18:06.246Z,6.50
2018-02-16T13:20:33.957Z,6.60
2018-02-16T13:23:00.883Z,6.50
2018-02-16T13:25:27.863Z,6.50
2018-02-16T13:27:54.786Z,6.50
2018-02-16T13:30:21.746Z,6.50
2018-02-16T13:32:48.671Z,6.50
2018-02-16T13:35:15.640Z,6.60
2018-02-16T13:37:42.563Z,6.70
2018-02-16T13:40:09.507Z,6.70
2018-02-16T13:42:36.479Z,6.80
2018-02-16T13:47:48.431Z,6.70
2018-02-16T13:50:15.406Z,6.70
2018-02-16T13:52:42.330Z,6.60
2018-02-16T13:55:09.282Z,6.60
2018-02-16T13:57:36.202Z,6.80
2018-02-16T14:00:03.130Z,7.00
2018-02-16T14:02:30.830Z,7.10
2018-02-16T14:04:57.754Z,7.10
2018-02-16T14:07:24.692Z,7.10
2018-02-16T14:09:52.407Z,6.70
2018-02-16T14:12:19.342Z,6.70
2018-02-16T14:14:46.278Z,6.50
2018-02-16T14:17:13.224Z,6.40
2018-02-16T14:19:40.361Z,6.50
2018-02-16T14:22:07.327Z,6.50
2018-02-16T14:24:34.262Z,6.40
2018-02-16T14:27:01.202Z,6.40
2018-02-16T14:29:28.127Z,6.40
2018-02-16T14:31:55.937Z,6.30
2018-02-16T14:34:22.862Z,6.30
2018-02-16T14:36:49.802Z,6.40
2018-02-16T14:39:16.726Z,6.40
2018-02-16T14:41:44.438Z,6.30
2018-02-16T14:44:11.366Z,6.30
2018-02-16T14:46:38.322Z,6.30
2018-02-16T14:49:05.245Z,6.30
2018-02-16T14:51:32.194Z,6.30
2018-02-16T14:53:59.142Z,6.20
2018-02-16T14:56:26.082Z,6.20
2018-02-16T14:58:53.007Z,6.20
2018-02-16T15:01:19.934Z,6.10
2018-02-16T15:03:47.635Z,6.00
2018-02-16T15:06:14.563Z,6.00
2018-02-16T15:08:41.507Z,6.00
2018-02-16T15:11:08.434Z,6.00
2018-02-16T15:13:36.138Z,6.00
2018-02-16T15:16:03.062Z,6.00
2018-02-16T15:18:30.762Z,6.00
2018-02-16T15:20:57.726Z,6.00
2018-02-16T15:23:24.675Z,6.00
2018-02-16T15:25:51.607Z,6.00
2018-02-16T15:28:18.550Z,6.00
2018-02-16T15:30:45.491Z,6.00
2018-02-16T15:33:12.430Z,6.00
2018-02-16T15:35:39.360Z,5.90
2018-02-16T15:38:06.309Z,6.00
2018-02-16T15:40:33.230Z,6.00
2018-02-16T15:43:00.939Z,5.90
2018-02-16T15:45:27.862Z,5.80
2018-02-16T15:47:54.813Z,5.90
2018-02-16T15:50:21.732Z,5.80
2018-02-16T15:52:48.668Z,5.80
2018-02-16T15:55:16.354Z,5.90
2018-02-16T15:57:43.290Z,5.80
2018-02-16T16:00:10.215Z,5.90
2018-02-16T16:02:37.914Z,5.70
2018-02-16T16:05:04.841Z,5.70
2018-02-16T16:07:31.761Z,5.70
2018-02-16T16:09:59.462Z,5.60
2018-02-16T16:12:26.384Z,5.60
2018-02-16T16:14:54.073Z,5.60
2018-02-16T16:17:20.993Z,5.60
2018-02-16T16:19:48.706Z,5.50
2018-02-16T16:22:15.622Z,5.50
2018-02-16T16:24:42.570Z,5.50
2018-02-16T16:27:09.491Z,5.50
2018-02-16T16:29:37.487Z,5.40
2018-02-16T16:32:04.461Z,5.40
2018-02-16T16:34:31.389Z,5.40
2018-02-16T16:36:58.345Z,5.30
2018-02-16T16:39:25.356Z,5.30
2018-02-16T16:41:52.272Z,5.40
2018-02-16T16:44:19.985Z,5.30
2018-02-16T16:46:46.908Z,5.30
2018-02-16T16:49:13.854Z,5.20
2018-02-16T16:51:40.774Z,5.30
2018-02-16T16:54:08.482Z,5.30
2018-02-16T16:56:35.406Z,5.30
2018-02-16T16:59:02.378Z,5.30
2018-02-16T17:01:29.339Z,5.30
2018-02-16T17:03:56.282Z,5.30
2018-02-16T17:06:23.202Z,5.30
2018-02-16T17:08:50.130Z,5.30
2018-02-16T17:11:17.080Z,5.30
2018-02-16T17:13:44.010Z,5.30
2018-02-16T17:16:11.732Z,5.30
2018-02-16T17:18:38.649Z,5.30
2018-02-16T17:21:05.589Z,5.20
2018-02-16T17:23:32.522Z,5.20
2018-02-16T17:26:00.286Z,5.20
2018-02-16T17:28:27.207Z,5.20
2018-02-16T17:30:54.138Z,5.30
2018-02-16T17:33:21.062Z,5.20
2018-02-16T17:35:48.020Z,5.20
2018-02-16T17:38:14.955Z,5.20
2018-02-16T17:40:41.959Z,5.30
2018-02-16T17:43:08.928Z,5.20
2018-02-16T17:45:36.007Z,5.20
2018-02-16T17:48:02.926Z,5.20
2018-02-16T17:50:29.853Z,5.20
2018-02-16T17:52:56.789Z,5.20
2018-02-16T17:55:23.726Z,5.20
2018-02-16T17:57:51.426Z,5.10
2018-02-16T18:00:18.357Z,5.10
2018-02-16T18:02:45.342Z,5.10
2018-02-16T18:05:12.271Z,5.10
2018-02-16T18:07:39.241Z,5.10
2018-02-16T18:10:06.671Z,5.10
2018-02-16T18:12:33.623Z,5.20
2018-02-16T18:15:00.546Z,5.20
2018-02-16T18:17:27.532Z,5.10
2018-02-16T18:19:54.430Z,5.10
2018-02-16T18:22:21.367Z,5.10
2018-02-16T18:24:48.297Z,5.10
2018-02-16T18:27:15.998Z,5.10
2018-02-16T18:29:42.911Z,5.10
2018-02-16T18:32:09.892Z,5.00
2018-02-16T18:34:37.907Z,5.00
2018-02-16T18:37:05.609Z,5.30
2018-02-16T18:39:32.596Z,5.30
2018-02-16T18:41:59.534Z,5.70
2018-02-16T18:44:26.535Z,5.70
2018-02-16T18:46:53.664Z,5.50
2018-02-16T18:49:21.358Z,5.30
2018-02-16T18:51:48.306Z,5.30
2018-02-16T18:54:15.238Z,5.20
2018-02-16T18:56:42.172Z,5.10
2018-02-16T18:59:10.402Z,5.00
2018-02-16T19:01:37.354Z,5.00
2018-02-16T19:04:04.274Z,4.90
2018-02-16T19:06:31.249Z,5.00
2018-02-16T19:08:58.175Z,5.00
2018-02-16T19:11:25.099Z,5.00
2018-02-16T19:13:52.042Z,5.00
2018-02-16T19:16:18.987Z,4.90
2018-02-16T19:18:45.927Z,4.90
2018-02-16T19:21:12.849Z,4.90
2018-02-16T19:23:40.546Z,4.80
2018-02-16T19:26:07.469Z,4.80
2018-02-16T19:28:34.410Z,4.80
2018-02-16T19:31:01.348Z,4.80
2018-02-16T19:33:29.423Z,4.80
2018-02-16T19:35:56.406Z,4.80
2018-02-16T19:38:23.346Z,4.90
2018-02-16T19:40:50.265Z,4.80
2018-02-16T19:43:17.207Z,4.80
2018-02-16T19:45:44.136Z,4.80
2018-02-16T19:48:11.828Z,4.80
2018-02-16T19:50:39.164Z,4.80
2018-02-16T19:53:06.488Z,4.80
2018-02-16T19:55:33.468Z,4.80
2018-02-16T19:58:01.170Z,4.80
2018-02-16T20:00:28.098Z,4.70
2018-02-16T20:02:55.138Z,4.80
2018-02-16T20:05:22.100Z,4.70
2018-02-16T20:07:49.019Z,4.80
2018-02-16T20:10:16.508Z,4.80
2018-02-16T20:12:43.542Z,4.80
2018-02-16T20:15:10.478Z,4.80
2018-02-16T20:17:37.536Z,4.70
2018-02-16T20:20:04.486Z,4.80
2018-02-16T20:22:31.416Z,4.70
2018-02-16T20:24:58.354Z,4.70
2018-02-16T20:27:25.285Z,4.70
2018-02-16T20:29:53.387Z,4.80
2018-02-16T20:32:20.758Z,4.70
2018-02-16T20:34:48.519Z,4.70
2018-02-16T20:37:15.446Z,4.70
2018-02-16T20:39:42.443Z,4.70
2018-02-16T20:42:10.405Z,4.70
2018-02-16T20:44:38.146Z,4.80
2018-02-16T20:47:05.281Z,4.70
2018-02-16T20:49:32.378Z,4.80
2018-02-16T20:51:59.304Z,4.70
2018-02-16T20:54:26.253Z,4.70
2018-02-16T20:56:53.184Z,4.60
2018-02-16T20:59:20.106Z,4.70
2018-02-16T21:01:47.046Z,4.70
2018-02-16T21:04:13.969Z,4.60
2018-02-16T21:06:41.674Z,4.60
2018-02-16T21:09:08.594Z,4.60
2018-02-16T21:11:35.906Z,4.60
2018-02-16T21:14:03.626Z,4.60
2018-02-16T21:16:30.736Z,4.60
2018-02-16T21:18:57.654Z,4.60
2018-02-16T21:21:24.604Z,4.60
2018-02-16T21:23:51.530Z,4.60
2018-02-16T21:26:18.488Z,4.60
2018-02-16T21:28:45.441Z,4.60
2018-02-16T21:31:12.369Z,4.60
2018-02-16T21:33:39.298Z,4.50
2018-02-16T21:36:06.230Z,4.50
2018-02-16T21:38:33.160Z,4.40
2018-02-16T21:41:00.862Z,4.40
2018-02-16T21:43:27.792Z,4.40
2018-02-16T21:45:54.725Z,4.40
2018-02-16T21:48:21.646Z,4.40
2018-02-16T21:50:49.373Z,4.40
2018-02-16T21:53:16.293Z,4.40
2018-02-16T21:55:43.254Z,4.40
2018-02-16T21:58:10.182Z,4.30
2018-02-16T22:00:37.169Z,4.30
2018-02-16T22:03:04.111Z,4.40
2018-02-16T22:05:31.067Z,4.40
2018-02-16T22:07:57.987Z,4.40
2018-02-16T22:10:25.106Z,4.30
2018-02-16T22:12:52.033Z,4.30
2018-02-16T22:15:19.721Z,4.40
2018-02-16T22:17:46.658Z,4.40
2018-02-16T22:20:13.578Z,4.30
2018-02-16T22:22:41.277Z,4.40
2018-02-16T22:25:08.194Z,4.40
2018-02-16T22:27:35.898Z,4.40
2018-02-16T22:30:02.855Z,4.40
2018-02-16T22:32:29.910Z,4.30
2018-02-16T22:34:56.843Z,4.30
2018-02-16T22:37:23.786Z,4.30
2018-02-16T22:39:50.722Z,4.30
2018-02-16T22:42:17.662Z,4.40
2018-02-16T22:44:44.586Z,4.40
2018-02-16T22:47:11.543Z,4.40
2018-02-16T22:49:38.498Z,4.50
2018-02-16T22:52:05.447Z,4.50
2018-02-16T22:54:32.791Z,4.50
2018-02-16T22:56:59.752Z,4.40
2018-02-16T22:59:26.673Z,4.50
2018-02-16T23:01:53.594Z,4.60
2018-02-16T23:04:21.299Z,4.50
2018-02-16T23:06:48.222Z,4.50
2018-02-16T23:09:15.159Z,4.50
2018-02-16T23:11:42.851Z,4.50
2018-02-16T23:14:09.818Z,4.50
2018-02-16T23:16:36.746Z,4.60
2018-02-16T23:19:03.686Z,4.50
2018-02-16T23:21:30.611Z,4.60
2018-02-16T23:23:57.555Z,4.50
2018-02-16T23:26:24.495Z,4.60
2018-02-16T23:28:52.222Z,4.50
2018-02-16T23:31:19.147Z,4.50
2018-02-16T23:33:46.132Z,4.60
2018-02-16T23:36:13.058Z,4.60
2018-02-16T23:38:39.998Z,4.60
2018-02-16T23:41:06.930Z,4.60
2018-02-16T23:43:33.840Z,4.50
2018-02-16T23:46:00.778Z,4.60
2018-02-16T23:48:27.711Z,4.60
2018-02-16T23:50:54.638Z,4.60
2018-02-16T23:53:21.636Z,4.60
2018-02-16T23:55:48.604Z,4.60
2018-02-16T23:58:16.331Z,4.60
